Time;durP1;ratioP1;P1;durP2;ratioP2;P2;SDS_P1;SDS_P2;PMS_P1;PMS_P2;Temp;Humidity;BMP_temperature;BMP_pressure;BME280_temperature;BME280_humidity;BME280_pressure;Samples;Min_cycle;Max_cycle;Signal;HPM_P1;HPM_P2
2022/05/16 00:02:09;;;;;;;25.65;4.13;;;;;;;;;;5012158;28;20034;-47
2022/05/16 00:04:37;;;;;;;20.83;3.95;;;;;;;;;;5011455;28;20038;-47
2022/05/16 00:07:04;;;;;;;23.77;4.00;;;;;;;;;;5012176;28;20034;-49
2022/05/16 00:09:31;;;;;;;22.95;3.55;;;;;;;;;;5011089;28;20041;-52
2022/05/16 00:11:58;;;;;;;19.70;3.50;;;;;;;;;;5010747;28;20117;-48
2022/05/16 00:14:25;;;;;;;22.45;3.60;;;;;;;;;;5011825;28;20037;-51
2022/05/16 00:16:52;;;;;;;23.23;3.63;;;;;;;;;;5011500;28;20044;-49
2022/05/16 00:19:20;;;;;;;18.55;2.85;;;;;;;;;;5010633;28;20026;-50
2022/05/16 00:21:46;;;;;;;20.45;3.30;;;;;;;;;;5011666;28;20053;-51
2022/05/16 00:24:13;;;;;;;17.50;3.30;;;;;;;;;;5011259;28;20483;-51
2022/05/16 00:26:40;;;;;;;17.95;3.67;;;;;;;;;;5011866;28;20104;-46
2022/05/16 00:29:08;;;;;;;13.77;2.85;;;;;;;;;;5010774;28;20499;-48
2022/05/16 00:31:35;;;;;;;14.38;3.05;;;;;;;;;;5012141;28;20388;-45
2022/05/16 00:34:02;;;;;;;18.50;3.22;;;;;;;;;;5011319;28;20034;-47
2022/05/16 00:36:29;;;;;;;19.20;3.72;;;;;;;;;;5012115;28;20038;-47
2022/05/16 00:38:56;;;;;;;29.70;3.60;;;;;;;;;;5010047;28;20034;-48
2022/05/16 00:41:23;;;;;;;25.20;3.15;;;;;;;;;;5011119;28;20105;-49
2022/05/16 00:43:58;;;;;;;13.77;2.90;;;;;;;;;;4994423;28;20037;-47
2022/05/16 00:46:27;;;;;;;15.32;3.40;;;;;;;;;;5011385;28;20076;-49
2022/05/16 00:48:54;;;;;;;15.48;2.90;;;;;;;;;;4992720;28;20033;-48
2022/05/16 00:51:23;;;;;;;17.13;3.47;;;;;;;;;;5010714;28;20038;-47
2022/05/16 00:53:54;;;;;;;17.20;3.17;;;;;;;;;;5011915;28;20438;-49
2022/05/16 00:56:22;;;;;;;17.77;3.47;;;;;;;;;;5011105;28;20061;-52
2022/05/16 00:58:49;;;;;;;13.25;3.00;;;;;;;;;;5009886;28;20033;-50
2022/05/16 01:06:48;;;;;;;15.88;2.65;;;;;;;;;;5011574;28;20080;-51
2022/05/16 01:09:15;;;;;;;16.33;2.97;;;;;;;;;;5010170;28;20042;-51
2022/05/16 01:11:42;;;;;;;13.82;2.50;;;;;;;;;;5009940;28;20030;-48
2022/05/16 01:14:09;;;;;;;18.83;3.75;;;;;;;;;;5011055;28;20101;-46
2022/05/16 01:16:37;;;;;;;14.88;2.55;;;;;;;;;;5010099;28;20030;-49
2022/05/16 01:19:04;;;;;;;14.70;3.10;;;;;;;;;;5009501;28;20076;-54
2022/05/16 01:21:39;;;;;;;14.77;2.95;;;;;;;;;;5010974;28;20081;-49
2022/05/16 01:24:06;;;;;;;13.75;3.13;;;;;;;;;;5010389;28;20088;-46
2022/05/16 01:26:34;;;;;;;11.27;2.50;;;;;;;;;;5010325;28;20042;-45
2022/05/16 01:29:01;;;;;;;10.57;2.80;;;;;;;;;;5008764;28;20128;-51
2022/05/16 01:31:29;;;;;;;12.45;2.97;;;;;;;;;;4991578;28;20440;-52
2022/05/16 01:33:56;;;;;;;14.60;2.90;;;;;;;;;;5009902;28;20030;-50
2022/05/16 01:36:24;;;;;;;13.80;2.95;;;;;;;;;;5009837;28;20026;-51
2022/05/16 01:38:52;;;;;;;16.42;3.75;;;;;;;;;;5009432;28;20034;-50
2022/05/16 01:41:20;;;;;;;11.60;3.40;;;;;;;;;;5010739;28;20053;-47
2022/05/16 01:43:54;;;;;;;9.68;2.88;;;;;;;;;;5011132;28;20057;-49
2022/05/16 01:46:24;;;;;;;10.20;3.10;;;;;;;;;;5010895;28;20061;-51
2022/05/16 01:48:52;;;;;;;14.65;3.05;;;;;;;;;;5009186;28;20184;-47
2022/05/16 01:51:20;;;;;;;9.30;2.72;;;;;;;;;;5010425;28;20392;-46
2022/05/16 01:53:47;;;;;;;11.27;2.95;;;;;;;;;;5010551;28;20068;-49
2022/05/16 01:56:14;;;;;;;11.65;2.78;;;;;;;;;;5010893;28;20075;-49
2022/05/16 01:58:41;;;;;;;13.10;3.15;;;;;;;;;;5012281;28;20116;-51
2022/05/16 02:01:09;;;;;;;11.25;2.75;;;;;;;;;;5029817;28;20033;-50
2022/05/16 02:03:40;;;;;;;14.85;2.75;;;;;;;;;;5011546;28;20033;-50
2022/05/16 02:06:08;;;;;;;15.48;2.50;;;;;;;;;;5012184;28;20045;-48
2022/05/16 02:08:35;;;;;;;6.43;1.90;;;;;;;;;;5028904;28;20538;-53
2022/05/16 02:11:02;;;;;;;12.75;2.85;;;;;;;;;;5030268;28;20403;-49
2022/05/16 02:13:30;;;;;;;11.50;2.67;;;;;;;;;;5028549;28;20644;-48
2022/05/16 02:15:59;;;;;;;7.70;2.20;;;;;;;;;;5029558;28;20105;-51
2022/05/16 02:18:26;;;;;;;9.38;2.33;;;;;;;;;;5028435;28;20025;-48
2022/05/16 02:26:38;;;;;;;7.25;1.92;;;;;;;;;;5029964;28;20501;-48
2022/05/16 02:29:05;;;;;;;5.78;1.67;;;;;;;;;;5029147;28;20037;-48
2022/05/16 02:31:32;;;;;;;14.07;2.20;;;;;;;;;;5029584;28;20121;-47
2022/05/16 02:33:59;;;;;;;7.85;2.63;;;;;;;;;;5029659;28;20563;-49
2022/05/16 02:36:26;;;;;;;10.27;2.65;;;;;;;;;;5030738;28;20092;-51
2022/05/16 02:38:53;;;;;;;7.13;1.90;;;;;;;;;;5030416;28;20033;-45
2022/05/16 02:41:20;;;;;;;10.20;2.38;;;;;;;;;;5015922;28;20066;-47
2022/05/16 02:43:47;;;;;;;7.18;1.75;;;;;;;;;;4992669;28;20034;-50
2022/05/16 02:46:14;;;;;;;12.20;2.00;;;;;;;;;;5012363;28;20076;-49
2022/05/16 02:48:41;;;;;;;11.85;2.33;;;;;;;;;;4996866;28;20511;-48
2022/05/16 02:51:08;;;;;;;7.32;1.88;;;;;;;;;;5014128;28;20045;-49
2022/05/16 02:53:35;;;;;;;7.65;1.73;;;;;;;;;;5014491;28;20038;-48
2022/05/16 02:56:02;;;;;;;9.23;1.83;;;;;;;;;;5013041;28;20033;-49
2022/05/16 02:58:29;;;;;;;9.60;1.73;;;;;;;;;;5013906;28;20038;-52
2022/05/16 03:00:56;;;;;;;10.45;2.17;;;;;;;;;;5013178;28;20388;-49
2022/05/16 03:03:23;;;;;;;7.72;1.50;;;;;;;;;;5022150;28;20483;-53
2022/05/16 03:05:50;;;;;;;8.38;2.15;;;;;;;;;;5033614;28;20048;-48
2022/05/16 03:08:17;;;;;;;6.53;1.70;;;;;;;;;;5034521;28;20075;-51
2022/05/16 03:10:44;;;;;;;11.90;2.58;;;;;;;;;;5028776;28;20033;-49
2022/05/16 03:13:11;;;;;;;15.07;2.38;;;;;;;;;;5011885;28;20030;-45
2022/05/16 03:15:39;;;;;;;11.55;2.10;;;;;;;;;;5013475;28;20045;-45
2022/05/16 03:18:06;;;;;;;9.93;2.10;;;;;;;;;;5014089;28;20030;-46
2022/05/16 03:20:33;;;;;;;8.98;1.75;;;;;;;;;;5014684;28;20030;-48
2022/05/16 03:23:00;;;;;;;11.93;2.13;;;;;;;;;;4996390;28;20064;-47
2022/05/16 03:25:27;;;;;;;14.10;2.50;;;;;;;;;;5014668;28;20076;-48
2022/05/16 03:27:54;;;;;;;13.45;2.65;;;;;;;;;;5013553;28;20066;-49
2022/05/16 03:30:21;;;;;;;11.63;2.25;;;;;;;;;;5014197;28;20471;-47
2022/05/16 03:32:49;;;;;;;11.27;2.55;;;;;;;;;;5013871;28;20529;-48
2022/05/16 03:35:16;;;;;;;7.95;2.17;;;;;;;;;;5014021;28;20435;-49
2022/05/16 03:37:43;;;;;;;15.80;2.00;;;;;;;;;;5013906;28;20032;-46
2022/05/16 03:42:55;;;;;;;16.42;2.42;;;;;;;;;;5014557;28;20422;-47
2022/05/16 03:45:25;;;;;;;17.20;2.67;;;;;;;;;;5012303;28;20049;-47
2022/05/16 03:51:03;;;;;;;11.00;2.50;;;;;;;;;;5012373;28;20040;-48
2022/05/16 03:53:30;;;;;;;9.88;2.38;;;;;;;;;;5013802;28;20840;-50
2022/05/16 03:55:57;;;;;;;10.70;2.05;;;;;;;;;;5013684;28;20026;-47
2022/05/16 03:58:24;;;;;;;14.38;2.10;;;;;;;;;;5014247;28;20029;-46
2022/05/16 04:00:51;;;;;;;10.63;2.28;;;;;;;;;;5013371;28;20033;-47
2022/05/16 04:03:18;;;;;;;9.07;2.28;;;;;;;;;;5013993;28;20033;-45
2022/05/16 04:05:45;;;;;;;8.35;2.30;;;;;;;;;;5013923;28;20431;-46
2022/05/16 04:08:12;;;;;;;12.05;2.58;;;;;;;;;;5013486;28;20042;-51
2022/05/16 04:10:39;;;;;;;9.02;2.20;;;;;;;;;;5013624;28;20030;-48
2022/05/16 04:13:06;;;;;;;8.00;1.80;;;;;;;;;;5014038;28;20048;-48
2022/05/16 04:15:33;;;;;;;8.57;2.40;;;;;;;;;;5013407;28;20022;-47
2022/05/16 04:18:00;;;;;;;12.60;2.10;;;;;;;;;;5013740;28;20380;-48
2022/05/16 04:20:27;;;;;;;10.52;2.08;;;;;;;;;;5012982;28;20026;-47
2022/05/16 04:22:54;;;;;;;11.00;1.85;;;;;;;;;;5013818;28;20050;-46
2022/05/16 04:25:21;;;;;;;5.07;2.00;;;;;;;;;;5013225;28;20080;-49
2022/05/16 04:27:48;;;;;;;7.18;2.20;;;;;;;;;;5013521;28;20076;-47
2022/05/16 04:30:15;;;;;;;14.05;2.35;;;;;;;;;;5013798;28;20030;-46
2022/05/16 04:32:42;;;;;;;7.82;1.80;;;;;;;;;;5012804;28;20037;-46
2022/05/16 04:35:10;;;;;;;6.72;2.22;;;;;;;;;;5013275;28;20045;-52
2022/05/16 04:37:37;;;;;;;5.95;1.67;;;;;;;;;;5013621;28;20033;-48
2022/05/16 04:40:05;;;;;;;5.07;1.80;;;;;;;;;;5012731;28;20049;-51
2022/05/16 04:42:41;;;;;;;5.95;1.55;;;;;;;;;;5013714;28;20392;-46
2022/05/16 04:45:14;;;;;;;7.35;1.77;;;;;;;;;;5012953;28;20030;-49
2022/05/16 04:47:41;;;;;;;4.35;1.70;;;;;;;;;;5013472;28;20076;-50
2022/05/16 04:50:09;;;;;;;4.40;1.65;;;;;;;;;;5012239;28;20037;-51
2022/05/16 04:52:36;;;;;;;11.15;1.75;;;;;;;;;;5013571;28;20033;-48
2022/05/16 04:55:03;;;;;;;7.93;1.88;;;;;;;;;;5012431;28;20503;-47
2022/05/16 04:57:30;;;;;;;3.88;1.77;;;;;;;;;;5013511;28;20033;-47
2022/05/16 04:59:57;;;;;;;4.47;1.70;;;;;;;;;;5012276;28;20419;-46
2022/05/16 05:02:24;;;;;;;5.18;1.60;;;;;;;;;;5012406;28;20459;-48
2022/05/16 05:04:51;;;;;;;5.47;1.88;;;;;;;;;;5013157;28;20050;-48
2022/05/16 05:07:18;;;;;;;5.45;1.70;;;;;;;;;;5013120;28;20037;-49
2022/05/16 05:15:17;;;;;;;6.90;1.60;;;;;;;;;;5012781;28;20046;-52
2022/05/16 05:17:44;;;;;;;6.45;1.60;;;;;;;;;;5012917;28;20030;-48
2022/05/16 05:20:14;;;;;;;5.75;1.92;;;;;;;;;;5012308;28;20635;-48
2022/05/16 05:22:45;;;;;;;4.95;2.03;;;;;;;;;;5012793;28;20396;-47
2022/05/16 05:25:13;;;;;;;5.15;1.70;;;;;;;;;;5012033;28;20026;-51
2022/05/16 05:27:41;;;;;;;3.95;1.55;;;;;;;;;;5012345;28;20033;-48
2022/05/16 05:30:09;;;;;;;6.28;1.70;;;;;;;;;;5012434;28;20041;-48
2022/05/16 05:32:36;;;;;;;6.72;1.60;;;;;;;;;;5011863;28;20518;-49
2022/05/16 05:35:04;;;;;;;3.10;1.30;;;;;;;;;;5012863;28;20030;-47
2022/05/16 05:37:32;;;;;;;4.35;1.40;;;;;;;;;;5012240;28;20076;-48
2022/05/16 05:40:01;;;;;;;3.67;1.67;;;;;;;;;;5012364;28;20068;-52
2022/05/16 05:42:28;;;;;;;3.72;1.50;;;;;;;;;;5012595;28;20068;-51
2022/05/16 05:44:55;;;;;;;6.95;1.60;;;;;;;;;;5011737;28;20392;-46
2022/05/16 05:47:22;;;;;;;4.18;1.58;;;;;;;;;;5012615;28;20425;-48
2022/05/16 05:49:49;;;;;;;2.45;1.30;;;;;;;;;;5012365;28;20049;-48
2022/05/16 05:52:16;;;;;;;4.40;1.40;;;;;;;;;;5012515;28;20089;-49
2022/05/16 05:54:44;;;;;;;6.15;1.58;;;;;;;;;;5011957;28;20054;-46
2022/05/16 05:57:11;;;;;;;3.33;1.40;;;;;;;;;;5012248;28;20084;-47
2022/05/16 05:59:39;;;;;;;6.95;1.83;;;;;;;;;;5012530;28;20030;-53
2022/05/16 06:02:07;;;;;;;5.32;1.65;;;;;;;;;;5011723;28;20396;-46
2022/05/16 06:04:34;;;;;;;5.25;1.83;;;;;;;;;;5012100;28;20534;-50
2022/05/16 06:07:01;;;;;;;5.03;1.90;;;;;;;;;;5011836;28;20030;-48
2022/05/16 06:09:28;;;;;;;4.05;1.70;;;;;;;;;;5012012;28;20036;-51
2022/05/16 06:11:58;;;;;;;3.95;1.42;;;;;;;;;;5011713;28;20038;-52
2022/05/16 06:14:28;;;;;;;3.13;1.23;;;;;;;;;;5012612;28;20069;-49
2022/05/16 06:16:56;;;;;;;2.97;1.50;;;;;;;;;;5011553;28;20025;-50
2022/05/16 06:19:23;;;;;;;3.65;1.58;;;;;;;;;;5012512;28;20033;-45
2022/05/16 06:21:50;;;;;;;3.38;1.33;;;;;;;;;;5015846;28;20057;-48
2022/05/16 06:27:02;;;;;;;3.88;1.60;;;;;;;;;;5015750;28;20076;-46
2022/05/16 06:29:30;;;;;;;3.15;1.63;;;;;;;;;;5015743;28;20050;-49
2022/05/16 06:31:57;;;;;;;3.28;1.63;;;;;;;;;;5166944;22;20113;-46
2022/05/16 06:34:24;;;;;;;3.08;1.27;;;;;;;;;;5016636;28;20801;-50
2022/05/16 06:36:51;;;;;;;3.90;1.73;;;;;;;;;;5013389;28;20030;-49
2022/05/16 06:39:18;;;;;;;4.65;1.70;;;;;;;;;;5014739;28;20029;-51
2022/05/16 06:41:45;;;;;;;3.38;1.60;;;;;;;;;;5015452;28;20105;-48
2022/05/16 06:44:14;;;;;;;1.88;1.17;;;;;;;;;;5014644;28;20403;-50
2022/05/16 06:46:42;;;;;;;3.65;1.73;;;;;;;;;;5014697;28;20069;-49
2022/05/16 06:49:09;;;;;;;3.88;1.52;;;;;;;;;;5014588;28;20442;-49
2022/05/16 06:51:36;;;;;;;3.53;1.30;;;;;;;;;;5014619;28;20026;-50
2022/05/16 06:54:04;;;;;;;2.05;1.20;;;;;;;;;;5015208;28;20018;-50
2022/05/16 06:56:31;;;;;;;2.80;1.08;;;;;;;;;;5014051;28;20088;-51
2022/05/16 06:58:58;;;;;;;2.65;1.50;;;;;;;;;;5014777;28;20052;-51
2022/05/16 07:01:25;;;;;;;1.90;1.20;;;;;;;;;;5013766;28;20030;-51
2022/05/16 07:03:52;;;;;;;2.70;1.42;;;;;;;;;;5014699;28;20030;-51
2022/05/16 07:06:19;;;;;;;3.28;1.35;;;;;;;;;;5014349;28;20022;-52
2022/05/16 07:08:46;;;;;;;3.20;1.40;;;;;;;;;;5014158;28;20022;-50
2022/05/16 07:11:13;;;;;;;3.08;1.50;;;;;;;;;;5014770;28;20021;-51
2022/05/16 07:13:40;;;;;;;2.90;1.48;;;;;;;;;;5013897;28;20518;-46
2022/05/16 07:16:07;;;;;;;2.28;1.20;;;;;;;;;;5014192;28;20022;-49
2022/05/16 07:18:34;;;;;;;1.98;1.05;;;;;;;;;;5014189;28;20026;-48
2022/05/16 07:21:01;;;;;;;2.25;1.23;;;;;;;;;;5014620;28;20036;-49
2022/05/16 07:23:28;;;;;;;1.88;1.23;;;;;;;;;;5013545;28;20046;-48
2022/05/16 07:28:40;;;;;;;2.90;1.40;;;;;;;;;;5014290;28;20045;-50
2022/05/16 07:31:07;;;;;;;3.22;1.20;;;;;;;;;;5012930;28;20041;-49
2022/05/16 07:33:35;;;;;;;4.65;1.40;;;;;;;;;;5014391;28;20042;-49
2022/05/16 07:36:02;;;;;;;3.95;1.33;;;;;;;;;;5013465;28;20033;-46
2022/05/16 07:38:30;;;;;;;3.50;1.15;;;;;;;;;;5014375;28;20030;-48
2022/05/16 07:40:57;;;;;;;4.03;1.30;;;;;;;;;;5014036;28;20033;-49
2022/05/16 07:43:26;;;;;;;2.75;1.20;;;;;;;;;;5014027;28;20026;-52
2022/05/16 07:45:53;;;;;;;3.63;1.38;;;;;;;;;;5013968;28;20069;-49
2022/05/16 07:48:21;;;;;;;3.65;1.02;;;;;;;;;;5014087;28;20033;-50
2022/05/16 07:50:48;;;;;;;3.63;1.95;;;;;;;;;;5013815;28;20033;-46
2022/05/16 07:53:16;;;;;;;2.47;0.98;;;;;;;;;;5013795;28;20033;-47
2022/05/16 07:55:44;;;;;;;1.98;0.80;;;;;;;;;;5014131;28;20506;-46
2022/05/16 07:58:12;;;;;;;2.58;1.00;;;;;;;;;;5013176;28;20038;-49
2022/05/16 08:00:39;;;;;;;2.38;1.10;;;;;;;;;;5014041;28;20022;-47
2022/05/16 08:03:09;;;;;;;2.80;1.30;;;;;;;;;;5013227;28;20442;-47
2022/05/16 08:05:36;;;;;;;3.78;1.20;;;;;;;;;;5013634;28;20038;-48
2022/05/16 08:10:48;;;;;;;2.90;1.13;;;;;;;;;;5013958;28;20125;-48
2022/05/16 08:13:15;;;;;;;2.15;1.17;;;;;;;;;;5013053;28;20042;-50
2022/05/16 08:15:43;;;;;;;3.00;1.17;;;;;;;;;;5013487;28;20036;-51
2022/05/16 08:18:12;;;;;;;2.90;1.15;;;;;;;;;;5013865;28;20030;-48
2022/05/16 08:20:42;;;;;;;4.63;1.38;;;;;;;;;;5012695;28;20145;-49
2022/05/16 08:23:10;;;;;;;5.18;1.05;;;;;;;;;;5013580;28;20026;-48
2022/05/16 08:25:37;;;;;;;2.47;0.90;;;;;;;;;;5012838;28;20033;-48
2022/05/16 08:28:05;;;;;;;2.97;1.10;;;;;;;;;;5013341;28;20376;-48
2022/05/16 08:30:31;;;;;;;3.25;1.17;;;;;;;;;;5013524;28;20108;-50
2022/05/16 08:33:01;;;;;;;2.13;0.85;;;;;;;;;;5012571;28;20061;-47
2022/05/16 08:35:28;;;;;;;4.53;1.30;;;;;;;;;;5012890;28;20034;-47
2022/05/16 08:40:44;;;;;;;1.98;0.90;;;;;;;;;;5012821;28;20076;-51
2022/05/16 08:43:19;;;;;;;1.83;0.90;;;;;;;;;;5012790;28;20109;-48
2022/05/16 08:45:51;;;;;;;1.90;0.95;;;;;;;;;;5012254;28;20109;-46
2022/05/16 08:48:26;;;;;;;2.55;1.15;;;;;;;;;;5012129;28;20088;-50
2022/05/16 08:50:53;;;;;;;1.95;0.80;;;;;;;;;;5012586;28;20430;-47
2022/05/16 08:53:29;;;;;;;3.20;1.10;;;;;;;;;;5012839;28;20112;-53
2022/05/16 08:56:01;;;;;;;2.67;1.10;;;;;;;;;;5012530;28;20100;-46
2022/05/16 08:58:33;;;;;;;1.33;1.00;;;;;;;;;;5012888;28;20036;-51
2022/05/16 09:01:06;;;;;;;2.22;0.90;;;;;;;;;;5011728;28;20072;-51
2022/05/16 09:03:36;;;;;;;4.32;1.08;;;;;;;;;;5012532;28;20448;-48
2022/05/16 09:06:12;;;;;;;2.63;1.10;;;;;;;;;;5012129;28;20030;-49
2022/05/16 09:08:39;;;;;;;2.15;0.95;;;;;;;;;;5012672;28;20034;-50
2022/05/16 09:11:17;;;;;;;2.65;1.20;;;;;;;;;;5011624;28;20068;-52
2022/05/16 09:13:58;;;;;;;2.13;0.80;;;;;;;;;;5012788;28;20518;-51
2022/05/16 09:16:31;;;;;;;1.60;1.00;;;;;;;;;;5012345;28;20091;-51
2022/05/16 09:19:16;;;;;;;2.10;0.88;;;;;;;;;;5012545;28;20479;-50
2022/05/16 09:21:55;;;;;;;1.95;0.73;;;;;;;;;;5011863;28;20026;-50
2022/05/16 09:24:42;;;;;;;1.73;0.75;;;;;;;;;;5011977;28;20034;-48
2022/05/16 09:27:14;;;;;;;4.07;0.90;;;;;;;;;;5012183;28;20040;-52
2022/05/16 09:29:45;;;;;;;2.50;1.00;;;;;;;;;;5011700;28;20030;-49
2022/05/16 09:32:15;;;;;;;1.97;1.10;;;;;;;;;;5011309;28;20050;-49
2022/05/16 09:34:42;;;;;;;1.77;0.80;;;;;;;;;;5012302;28;20022;-51
2022/05/16 09:37:10;;;;;;;2.22;0.88;;;;;;;;;;5011670;28;20030;-49
2022/05/16 09:39:39;;;;;;;2.60;1.02;;;;;;;;;;5011686;28;20034;-53
2022/05/16 09:42:26;;;;;;;2.17;0.73;;;;;;;;;;5012154;28;20038;-47
2022/05/16 09:45:12;;;;;;;3.92;0.80;;;;;;;;;;5011702;28;20056;-50
2022/05/16 09:47:40;;;;;;;3.03;0.95;;;;;;;;;;5011436;28;20137;-53
2022/05/16 09:50:14;;;;;;;3.60;1.10;;;;;;;;;;5012078;28;20496;-49
2022/05/16 09:52:50;;;;;;;3.67;0.82;;;;;;;;;;5011386;28;20063;-52
2022/05/16 09:55:33;;;;;;;1.90;0.70;;;;;;;;;;5016400;28;20030;-50
2022/05/16 09:58:02;;;;;;;3.13;0.82;;;;;;;;;;5018527;28;20443;-50
2022/05/16 10:00:32;;;;;;;4.25;1.17;;;;;;;;;;5018192;28;20032;-52
2022/05/16 10:03:14;;;;;;;1.73;0.68;;;;;;;;;;5018130;28;20030;-51
2022/05/16 10:05:47;;;;;;;1.92;0.68;;;;;;;;;;5018569;28;20026;-51
2022/05/16 10:08:23;;;;;;;3.55;0.80;;;;;;;;;;5017887;28;20037;-47
2022/05/16 10:10:50;;;;;;;3.35;0.70;;;;;;;;;;5017995;28;20037;-46
2022/05/16 10:13:17;;;;;;;3.20;0.80;;;;;;;;;;5018072;28;20026;-48
2022/05/16 10:15:44;;;;;;;2.63;0.70;;;;;;;;;;5018502;28;20038;-49
2022/05/16 10:18:13;;;;;;;4.13;0.60;;;;;;;;;;5017807;28;20076;-51
2022/05/16 10:20:42;;;;;;;7.05;1.00;;;;;;;;;;5017980;28;20102;-51
2022/05/16 10:23:13;;;;;;;6.93;1.00;;;;;;;;;;5018613;28;20472;-49
2022/05/16 10:25:43;;;;;;;3.25;0.93;;;;;;;;;;5017745;28;20026;-48
2022/05/16 10:28:13;;;;;;;3.25;0.70;;;;;;;;;;5018272;28;20045;-47
2022/05/16 10:33:28;;;;;;;2.72;0.88;;;;;;;;;;5017489;28;20056;-50
2022/05/16 10:36:07;;;;;;;4.47;0.95;;;;;;;;;;5018135;28;20200;-47
2022/05/16 10:38:37;;;;;;;4.07;0.80;;;;;;;;;;5017632;28;20033;-48
2022/05/16 10:41:08;;;;;;;3.95;1.00;;;;;;;;;;5017693;28;20033;-51
2022/05/16 10:43:38;;;;;;;3.95;1.17;;;;;;;;;;5016991;28;20026;-49
2022/05/16 10:46:17;;;;;;;7.95;1.00;;;;;;;;;;5018114;28;20113;-50
2022/05/16 10:48:51;;;;;;;3.33;0.70;;;;;;;;;;5017154;28;20042;-48
2022/05/16 10:51:26;;;;;;;9.32;1.70;;;;;;;;;;5017525;28;20041;-48
2022/05/16 10:54:07;;;;;;;6.05;0.95;;;;;;;;;;5017575;28;20113;-50
2022/05/16 10:56:34;;;;;;;6.75;1.30;;;;;;;;;;5018051;28;20112;-47
2022/05/16 10:59:12;;;;;;;8.18;0.88;;;;;;;;;;5016923;28;20040;-47
2022/05/16 11:02:01;;;;;;;6.75;0.93;;;;;;;;;;5017621;28;20068;-46
2022/05/16 11:04:31;;;;;;;2.72;0.68;;;;;;;;;;5017407;28;20502;-49
2022/05/16 11:07:15;;;;;;;6.75;0.95;;;;;;;;;;5013488;28;20026;-50
2022/05/16 11:09:42;;;;;;;3.38;0.88;;;;;;;;;;5014743;28;20050;-50
2022/05/16 11:12:19;;;;;;;5.15;1.00;;;;;;;;;;5013843;28;20033;-48
2022/05/16 11:14:57;;;;;;;6.95;1.13;;;;;;;;;;5014297;28;20080;-50
2022/05/16 11:17:39;;;;;;;6.40;0.93;;;;;;;;;;5014651;28;20034;-50
2022/05/16 11:20:12;;;;;;;7.30;1.40;;;;;;;;;;5014017;28;20061;-48
2022/05/16 11:22:41;;;;;;;6.25;1.00;;;;;;;;;;5014238;28;20030;-49
2022/05/16 11:25:16;;;;;;;8.57;1.08;;;;;;;;;;5014204;28;20515;-52
2022/05/16 11:28:00;;;;;;;7.25;0.98;;;;;;;;;;5013968;28;20088;-51
2022/05/16 11:30:34;;;;;;;7.35;1.20;;;;;;;;;;5013681;28;20034;-50
2022/05/16 11:33:21;;;;;;;6.90;1.30;;;;;;;;;;5013620;28;20520;-49
2022/05/16 11:35:50;;;;;;;6.50;0.90;;;;;;;;;;5014592;28;20029;-48
2022/05/16 11:38:28;;;;;;;9.55;1.20;;;;;;;;;;5014126;28;20041;-47
2022/05/16 11:41:13;;;;;;;28.35;2.60;;;;;;;;;;5014162;28;20088;-53
2022/05/16 11:43:47;;;;;;;11.52;1.30;;;;;;;;;;5031749;28;20048;-53
2022/05/16 11:46:14;;;;;;;8.18;1.27;;;;;;;;;;5033523;28;20064;-53
2022/05/16 11:48:50;;;;;;;7.35;1.10;;;;;;;;;;5033402;28;20040;-56
2022/05/16 11:51:25;;;;;;;8.35;1.30;;;;;;;;;;5032013;28;20092;-51
2022/05/16 11:53:57;;;;;;;8.43;1.30;;;;;;;;;;5032866;28;20120;-51
2022/05/16 12:02:17;;;;;;;14.85;1.20;;;;;;;;;;5032554;28;20048;-52
2022/05/16 12:04:47;;;;;;;6.32;1.10;;;;;;;;;;5032194;28;20034;-52
2022/05/16 12:07:16;;;;;;;6.63;1.25;;;;;;;;;;5033460;28;20402;-53
2022/05/16 12:09:52;;;;;;;48.67;5.00;;;;;;;;;;5032832;28;20037;-52
2022/05/16 12:12:34;;;;;;;9.50;1.58;;;;;;;;;;5031952;28;20041;-52
2022/05/16 12:15:24;;;;;;;7.07;1.30;;;;;;;;;;5031254;28;20030;-53
2022/05/16 12:17:55;;;;;;;21.85;1.95;;;;;;;;;;5027022;28;20052;-50
2022/05/16 12:20:40;;;;;;;19.58;1.52;;;;;;;;;;5031786;28;20048;-52
2022/05/16 12:23:08;;;;;;;12.77;1.33;;;;;;;;;;5032371;28;20033;-48
2022/05/16 12:25:37;;;;;;;12.38;1.75;;;;;;;;;;5031747;28;20022;-52
2022/05/16 12:28:29;;;;;;;12.10;1.80;;;;;;;;;;5032077;28;20025;-52
2022/05/16 12:30:58;;;;;;;6.85;1.40;;;;;;;;;;5032482;28;20041;-53
2022/05/16 12:33:49;;;;;;;14.00;1.73;;;;;;;;;;5052165;28;20079;-55
2022/05/16 12:36:20;;;;;;;7.30;1.30;;;;;;;;;;5051086;28;20403;-52
2022/05/16 12:39:13;;;;;;;13.80;1.43;;;;;;;;;;5052042;28;20029;-52
2022/05/16 12:41:59;;;;;;;5.35;1.23;;;;;;;;;;5048432;28;20391;-51
2022/05/16 12:44:26;;;;;;;10.30;1.63;;;;;;;;;;5033080;28;20045;-52
2022/05/16 12:46:53;;;;;;;11.10;1.20;;;;;;;;;;5050781;28;20055;-54
2022/05/16 12:49:20;;;;;;;9.00;1.30;;;;;;;;;;5051324;28;20048;-51
2022/05/16 12:51:56;;;;;;;7.03;1.17;;;;;;;;;;5052149;28;20044;-53
2022/05/16 12:54:23;;;;;;;8.93;1.30;;;;;;;;;;5051979;28;20094;-54
2022/05/16 12:56:53;;;;;;;7.78;1.50;;;;;;;;;;5052023;28;20033;-52
2022/05/16 12:59:26;;;;;;;5.55;1.40;;;;;;;;;;5052099;28;20372;-53
2022/05/16 13:02:04;;;;;;;13.07;1.67;;;;;;;;;;5052481;28;20021;-52
2022/05/16 13:04:37;;;;;;;9.90;1.67;;;;;;;;;;5051967;28;20545;-55
2022/05/16 13:07:07;;;;;;;11.30;1.42;;;;;;;;;;5052585;28;20044;-53
2022/05/16 13:09:42;;;;;;;9.20;1.38;;;;;;;;;;5051911;28;20482;-55
2022/05/16 13:12:29;;;;;;;9.50;1.27;;;;;;;;;;5052181;28;20032;-55
2022/05/16 13:14:58;;;;;;;8.35;1.60;;;;;;;;;;5052509;28;20382;-53
2022/05/16 13:17:35;;;;;;;8.52;1.70;;;;;;;;;;5052378;28;20087;-52
2022/05/16 13:20:05;;;;;;;5.93;1.70;;;;;;;;;;5051195;28;20115;-51
2022/05/16 13:22:34;;;;;;;8.80;1.65;;;;;;;;;;5052213;28;20075;-52
2022/05/16 13:25:01;;;;;;;7.00;1.45;;;;;;;;;;5033781;28;20375;-51
2022/05/16 13:30:17;;;;;;;11.23;1.60;;;;;;;;;;5011460;28;20045;-54
2022/05/16 13:32:44;;;;;;;11.02;1.65;;;;;;;;;;5011421;28;20062;-55
2022/05/16 13:35:12;;;;;;;8.30;1.40;;;;;;;;;;5011722;28;20026;-54
2022/05/16 13:37:45;;;;;;;7.75;1.45;;;;;;;;;;5012187;28;20025;-53
2022/05/16 13:40:18;;;;;;;5.20;1.40;;;;;;;;;;5012102;28;20480;-54
2022/05/16 13:42:44;;;;;;;;;;;;;;;;;;5011695;28;20053;-53
2022/05/16 13:45:11;;;;;;;5.43;1.10;;;;;;;;;;5012191;28;20381;-53
2022/05/16 13:47:44;;;;;;;8.98;1.83;;;;;;;;;;5011353;28;20026;-53
2022/05/16 13:50:42;;;;;;;8.88;1.25;;;;;;;;;;5011827;28;20041;-56
2022/05/16 13:53:09;;;;;;;7.53;1.50;;;;;;;;;;4992686;28;20038;-55
2022/05/16 13:55:43;;;;;;;7.47;1.52;;;;;;;;;;5011535;28;20030;-55
2022/05/16 13:58:13;;;;;;;4.85;1.30;;;;;;;;;;5010750;28;20609;-55
2022/05/16 14:00:44;;;;;;;7.53;1.40;;;;;;;;;;5011478;28;20034;-51
2022/05/16 14:03:20;;;;;;;7.07;1.40;;;;;;;;;;5011619;28;20547;-55
2022/05/16 14:05:47;;;;;;;11.05;1.20;;;;;;;;;;5012002;28;20037;-56
2022/05/16 14:08:23;;;;;;;6.55;1.13;;;;;;;;;;5010920;28;20038;-51
2022/05/16 14:10:51;;;;;;;7.13;1.40;;;;;;;;;;5010044;28;20423;-55
2022/05/16 14:13:21;;;;;;;5.38;1.17;;;;;;;;;;5010298;28;20037;-53
2022/05/16 14:16:06;;;;;;;9.13;1.30;;;;;;;;;;5012748;28;20395;-55
2022/05/16 14:18:45;;;;;;;10.38;1.80;;;;;;;;;;5026911;28;20064;-53
2022/05/16 14:21:17;;;;;;;14.15;1.58;;;;;;;;;;5025222;28;20080;-53
2022/05/16 14:23:46;;;;;;;13.10;2.20;;;;;;;;;;5029695;28;20426;-55
2022/05/16 14:26:18;;;;;;;15.32;1.98;;;;;;;;;;5028878;28;20036;-50
2022/05/16 14:28:45;;;;;;;;;;;;;;;;;;5028306;28;20503;-53
2022/05/16 14:31:26;;;;;;;13.38;1.50;;;;;;;;;;5031260;28;20095;-53
2022/05/16 14:34:13;;;;;;;7.30;1.08;;;;;;;;;;5049228;28;20048;-53
2022/05/16 14:36:41;;;;;;;8.75;1.45;;;;;;;;;;5048788;28;20044;-56
2022/05/16 14:39:21;;;;;;;9.30;1.70;;;;;;;;;;5048717;28;20475;-51
2022/05/16 14:41:51;;;;;;;15.45;1.15;;;;;;;;;;5027205;28;20026;-52
2022/05/16 14:44:20;;;;;;;21.70;1.50;;;;;;;;;;5023326;28;20041;-53
2022/05/16 14:46:57;;;;;;;16.05;1.35;;;;;;;;;;5033721;28;20087;-50
2022/05/16 14:49:24;;;;;;;14.90;1.25;;;;;;;;;;5032470;28;20486;-50
2022/05/16 14:51:51;;;;;;;35.28;1.77;;;;;;;;;;5032421;28;20044;-52
2022/05/16 14:54:41;;;;;;;12.93;0.82;;;;;;;;;;5033504;28;20461;-51
2022/05/16 14:57:08;;;;;;;15.07;1.35;;;;;;;;;;5020108;28;20078;-51
2022/05/16 14:59:35;;;;;;;36.15;2.80;;;;;;;;;;5029699;28;20021;-52
2022/05/16 15:04:49;;;;;;;36.75;3.63;;;;;;;;;;5016631;28;20399;-47
2022/05/16 15:07:18;;;;;;;28.65;3.00;;;;;;;;;;5033209;28;20041;-48
2022/05/16 15:09:45;;;;;;;22.63;2.83;;;;;;;;;;5032555;28;20033;-55
2022/05/16 15:12:12;;;;;;;21.80;2.67;;;;;;;;;;5032020;28;20033;-54
2022/05/16 15:14:39;;;;;;;19.30;2.22;;;;;;;;;;5032756;28;20372;-50
2022/05/16 15:17:08;;;;;;;18.02;2.28;;;;;;;;;;5030969;28;20068;-50
2022/05/16 15:19:37;;;;;;;21.65;2.40;;;;;;;;;;5027349;28;20091;-48
2022/05/16 15:22:05;;;;;;;25.15;2.85;;;;;;;;;;5016264;28;20064;-47
2022/05/16 15:24:34;;;;;;;16.63;2.10;;;;;;;;;;5023455;28;20022;-52
2022/05/16 15:27:02;;;;;;;22.13;2.85;;;;;;;;;;5013299;28;20037;-53
2022/05/16 15:29:29;;;;;;;17.90;2.42;;;;;;;;;;5032039;28;20076;-52
2022/05/16 15:31:56;;;;;;;24.80;3.10;;;;;;;;;;5015590;28;20408;-54
2022/05/16 15:34:23;;;;;;;209.10;12.18;;;;;;;;;;4994293;28;20041;-48
2022/05/16 15:36:50;;;;;;;108.63;9.23;;;;;;;;;;5024317;28;20379;-49
2022/05/16 15:39:25;;;;;;;110.05;8.00;;;;;;;;;;5027760;28;20124;-52
2022/05/16 15:41:51;;;;;;;69.57;7.60;;;;;;;;;;5024485;28;20032;-48
2022/05/16 15:44:21;;;;;;;69.43;7.20;;;;;;;;;;5023306;28;20031;-50